Time;durP1;ratioP1;P1;durP2;ratioP2;P2;SDS_P1;SDS_P2;PMS_P1;PMS_P2;Temp;Humidity;BMP_temperature;BMP_pressure;BME280_temperature;BME280_humidity;BME280_pressure;Samples;Min_cycle;Max_cycle;Signal;HPM_P1;HPM_P2
2023/06/18 00:01:02;;;;;;;6.80;6.30;;;26.90;39.60;27.30;100566.00;;;;5015943;28;20167;-61
2023/06/18 00:03:28;;;;;;;6.95;6.35;;;26.90;39.70;27.30;100542.00;;;;5030366;28;20193;-62
2023/06/18 00:05:54;;;;;;;6.85;6.25;;;26.90;39.70;27.30;100566.00;;;;5011871;28;20218;-61
2023/06/18 00:08:22;;;;;;;6.43;5.93;;;26.90;39.70;27.20;100567.00;;;;5029912;28;20191;-62
2023/06/18 00:10:48;;;;;;;6.50;6.00;;;26.80;39.70;27.20;100563.00;;;;5044864;28;20179;-62
2023/06/18 00:13:14;;;;;;;7.13;6.53;;;26.90;39.80;27.20;100562.00;;;;5029864;28;20229;-61
2023/06/18 00:15:40;;;;;;;6.50;6.00;;;26.80;39.80;27.20;100565.00;;;;5030495;28;20253;-62
2023/06/18 00:18:06;;;;;;;6.72;6.22;;;26.80;39.80;27.20;100563.00;;;;5014968;28;20305;-61
2023/06/18 00:20:32;;;;;;;7.03;6.43;;;26.80;39.90;27.10;100574.00;;;;5029804;28;20173;-62
2023/06/18 00:22:59;;;;;;;6.65;6.05;;;26.70;39.90;27.10;100552.00;;;;5030752;28;20764;-65
2023/06/18 00:25:25;;;;;;;6.50;6.00;;;26.70;40.00;27.10;100566.00;;;;5029945;28;20170;-63
2023/06/18 00:27:51;;;;;;;7.00;6.40;;;26.70;40.10;27.10;100565.00;;;;5030472;28;20191;-61
2023/06/18 00:30:17;;;;;;;6.75;6.25;;;26.70;40.10;27.00;100565.00;;;;5033231;28;20327;-60
2023/06/18 00:32:44;;;;;;;6.80;6.30;;;26.70;40.00;27.00;100566.00;;;;5034276;28;20171;-61
2023/06/18 00:35:14;;;;;;;6.68;6.07;;;26.60;40.10;26.90;100558.00;;;;5029918;28;20197;-63
2023/06/18 00:37:43;;;;;;;6.72;6.13;;;26.50;40.20;26.80;100556.00;;;;5028247;28;20195;-62
2023/06/18 00:40:14;;;;;;;6.80;6.15;;;26.50;40.20;26.80;100549.00;;;;5028132;28;20696;-61
2023/06/18 00:42:40;;;;;;;7.28;6.60;;;26.50;39.90;26.70;100546.00;;;;5028189;28;20265;-62
2023/06/18 00:45:11;;;;;;;6.43;5.93;;;26.40;39.10;26.70;100545.00;;;;5029282;28;20641;-62
2023/06/18 00:47:42;;;;;;;6.57;5.90;;;26.40;38.80;26.60;100536.00;;;;5029483;28;20619;-61
2023/06/18 00:50:09;;;;;;;6.82;6.32;;;26.40;38.60;26.60;100538.00;;;;5028544;28;20585;-62
2023/06/18 00:52:36;;;;;;;7.35;6.53;;;26.40;38.60;26.60;100535.00;;;;5012070;28;20240;-61
2023/06/18 00:55:02;;;;;;;7.00;6.38;;;26.40;38.60;26.60;100535.00;;;;5029137;28;20202;-61
2023/06/18 00:57:29;;;;;;;6.75;6.25;;;26.30;38.70;26.60;100528.00;;;;5028755;28;20697;-61
2023/06/18 00:59:55;;;;;;;6.60;6.00;;;26.40;39.10;26.60;100527.00;;;;5011735;28;20171;-61
2023/06/18 01:02:25;;;;;;;6.53;6.03;;;26.40;39.40;26.60;100523.00;;;;5027916;28;20174;-60
2023/06/18 01:04:53;;;;;;;7.43;6.82;;;26.40;39.60;26.50;100530.00;;;;5028858;28;20254;-61
2023/06/18 01:07:20;;;;;;;6.65;5.97;;;26.30;39.80;26.50;100524.00;;;;5028841;28;20190;-60
2023/06/18 01:09:52;;;;;;;6.85;6.25;;;26.30;40.10;26.50;100529.00;;;;5027623;28;20193;-62
2023/06/18 01:12:20;;;;;;;6.82;6.30;;;26.30;40.10;26.50;100534.00;;;;5028000;28;20184;-62
2023/06/18 01:14:50;;;;;;;7.05;6.45;;;26.30;40.40;26.40;100531.00;;;;5029003;28;20206;-61
2023/06/18 01:17:18;;;;;;;7.03;6.43;;;26.20;40.30;26.40;100528.00;;;;5027735;28;20269;-60
2023/06/18 01:20:00;;;;;;;6.95;6.43;;;26.20;40.60;26.40;100533.00;;;;5011712;28;20186;-61
2023/06/18 01:22:41;;;;;;;6.70;6.20;;;26.20;40.60;26.40;100521.00;;;;5030563;28;20548;-62
2023/06/18 01:25:07;;;;;;;6.90;6.38;;;26.20;40.70;26.40;100526.00;;;;5023142;28;20602;-60
2023/06/18 01:27:40;;;;;;;6.72;6.13;;;26.20;40.70;26.30;100512.00;;;;5023692;28;20289;-61
2023/06/18 01:30:10;;;;;;;7.55;6.95;;;26.20;40.70;26.30;100528.00;;;;5046235;28;20164;-61
2023/06/18 01:32:36;;;;;;;7.70;7.10;;;26.10;40.80;26.20;100519.00;;;;5047130;28;20520;-62
2023/06/18 01:35:04;;;;;;;6.78;6.28;;;26.10;40.80;26.20;100522.00;;;;5032048;28;20189;-61
2023/06/18 01:38:33;;;;;;;6.90;6.20;;;26.00;40.70;26.20;100509.00;;;;5031123;28;20203;-62
2023/06/18 01:41:19;;;;;;;7.35;6.70;;;26.00;40.90;26.10;100515.00;;;;5044960;28;20181;-61
2023/06/18 01:43:57;;;;;;;7.43;6.72;;;26.00;40.90;26.10;100515.00;;;;5045751;28;20653;-61
2023/06/18 01:46:23;;;;;;;7.53;6.20;;;25.90;40.80;26.10;100518.00;;;;5045518;28;20190;-60
2023/06/18 01:48:59;;;;;;;7.32;6.70;;;26.00;40.90;26.00;100506.00;;;;5046408;28;20599;-60
2023/06/18 01:51:27;;;;;;;7.10;6.47;;;25.90;40.80;26.00;100520.00;;;;5045263;28;20147;-61
2023/06/18 01:53:53;;;;;;;7.20;6.50;;;25.90;40.80;26.00;100514.00;;;;5046700;28;20254;-61
2023/06/18 01:56:19;;;;;;;6.68;6.10;;;25.80;40.70;25.90;100515.00;;;;5046369;28;20214;-61
2023/06/18 01:58:45;;;;;;;6.90;6.35;;;25.90;40.80;25.90;100500.00;;;;5047802;28;20704;-61
2023/06/18 02:01:11;;;;;;;6.35;5.82;;;25.80;40.70;25.90;100508.00;;;;5047627;28;20175;-61
2023/06/18 02:03:37;;;;;;;6.65;6.10;;;25.80;40.70;25.90;100504.00;;;;5032094;28;20232;-59
2023/06/18 02:06:04;;;;;;;7.05;6.45;;;25.80;40.80;25.90;100502.00;;;;5031789;28;20730;-60
2023/06/18 02:08:29;;;;;;;6.70;6.10;;;25.70;40.60;25.80;100505.00;;;;5031875;28;20186;-60
2023/06/18 02:10:55;;;;;;;6.55;6.05;;;25.70;40.60;25.80;100510.00;;;;5031921;28;20174;-61
2023/06/18 02:13:21;;;;;;;6.93;6.33;;;25.70;41.20;25.70;100513.00;;;;5047263;28;20179;-60
2023/06/18 02:15:46;;;;;;;7.43;6.73;;;25.70;40.60;25.70;100510.00;;;;5030652;28;20216;-61
2023/06/18 02:18:12;;;;;;;7.38;6.70;;;25.60;40.70;25.70;100513.00;;;;5036468;28;20229;-60
2023/06/18 02:20:41;;;;;;;7.35;6.75;;;25.60;40.80;25.60;100516.00;;;;5040673;28;20650;-60
2023/06/18 02:23:07;;;;;;;7.07;6.47;;;25.50;40.60;25.50;100523.00;;;;5040784;28;20596;-61
2023/06/18 02:25:34;;;;;;;7.33;6.63;;;25.40;40.50;25.40;100513.00;;;;5032010;28;20254;-60
2023/06/18 02:28:00;;;;;;;7.10;6.50;;;25.40;40.60;25.40;100514.00;;;;5047854;28;20185;-61
2023/06/18 02:30:28;;;;;;;7.13;6.60;;;25.30;40.80;25.40;100516.00;;;;5033818;28;20179;-61
2023/06/18 02:32:55;;;;;;;7.00;6.47;;;25.30;40.80;25.40;100510.00;;;;5033966;28;20552;-60
2023/06/18 02:35:21;;;;;;;6.80;6.20;;;25.40;40.80;25.40;100508.00;;;;5053265;28;20182;-60
2023/06/18 02:37:46;;;;;;;6.87;6.30;;;25.30;40.80;25.40;100502.00;;;;5033126;28;20210;-60
2023/06/18 02:40:14;;;;;;;6.77;6.07;;;25.30;40.90;25.30;100495.00;;;;5032695;28;20167;-60
2023/06/18 02:42:47;;;;;;;7.07;6.40;;;25.30;41.00;25.30;100509.00;;;;5032201;28;20253;-61
2023/06/18 02:45:18;;;;;;;6.90;6.30;;;25.30;41.00;25.30;100518.00;;;;5045971;28;20171;-60
2023/06/18 02:47:45;;;;;;;7.00;6.40;;;25.30;40.70;25.30;100497.00;;;;5030045;28;20228;-62
2023/06/18 02:50:11;;;;;;;7.37;6.70;;;25.30;40.70;25.30;100491.00;;;;5046701;28;20210;-59
2023/06/18 02:52:38;;;;;;;7.32;6.72;;;25.30;40.70;25.30;100496.00;;;;5031173;28;20171;-61
2023/06/18 02:55:06;;;;;;;6.80;6.17;;;25.20;40.70;25.30;100484.00;;;;5031187;28;20175;-61
2023/06/18 02:57:32;;;;;;;6.97;6.47;;;25.20;40.90;25.20;100493.00;;;;5030276;28;20222;-61
2023/06/18 02:59:58;;;;;;;6.57;6.07;;;25.20;40.80;25.20;100496.00;;;;5031490;28;20664;-61
2023/06/18 03:02:23;;;;;;;7.20;6.60;;;25.20;40.80;25.20;100490.00;;;;5031054;28;20171;-60
2023/06/18 03:04:50;;;;;;;7.13;6.53;;;25.20;40.80;25.20;100502.00;;;;5046549;28;20179;-61
2023/06/18 03:07:16;;;;;;;7.13;6.53;;;25.10;40.70;25.20;100489.00;;;;5031035;28;20205;-59
2023/06/18 03:09:41;;;;;;;6.47;5.93;;;25.00;40.80;25.10;100482.00;;;;5031569;28;20175;-60
2023/06/18 03:12:07;;;;;;;6.70;6.10;;;25.00;40.40;25.10;100482.00;;;;5031509;28;20179;-58
2023/06/18 03:14:33;;;;;;;6.30;5.80;;;25.00;40.30;25.00;100476.00;;;;5030960;28;20554;-60
2023/06/18 03:16:59;;;;;;;6.90;6.10;;;25.00;40.30;25.00;100479.00;;;;5030762;28;20191;-59
2023/06/18 03:19:24;;;;;;;6.87;6.27;;;25.00;40.30;25.00;100482.00;;;;5030896;28;20203;-60
2023/06/18 03:21:50;;;;;;;7.37;6.70;;;25.00;40.30;25.00;100488.00;;;;5030626;28;20251;-60
2023/06/18 03:24:17;;;;;;;6.47;5.97;;;25.00;40.40;25.00;100480.00;;;;5029475;28;20174;-59
2023/06/18 03:26:43;;;;;;;7.17;6.50;;;24.90;40.80;24.90;100497.00;;;;5030958;28;20194;-59
2023/06/18 03:29:09;;;;;;;7.40;6.70;;;24.90;41.00;24.90;100501.00;;;;5030702;28;20182;-60
2023/06/18 03:31:35;;;;;;;7.03;6.43;;;24.90;41.00;24.90;100512.00;;;;5030579;28;20645;-59
2023/06/18 03:34:01;;;;;;;7.07;6.47;;;24.90;41.10;24.90;100515.00;;;;5030373;28;20193;-59
2023/06/18 03:36:31;;;;;;;6.97;6.37;;;24.90;41.20;24.60;100508.00;;;;5030091;28;20308;-58
2023/06/18 03:38:57;;;;;;;6.83;6.17;;;24.80;41.20;24.80;100511.00;;;;5030745;28;20215;-59
2023/06/18 03:41:23;;;;;;;7.10;6.50;;;24.80;41.20;24.80;100512.00;;;;5030566;28;20209;-58
2023/06/18 03:43:48;;;;;;;7.10;6.50;;;24.80;41.20;24.80;100512.00;;;;5030303;28;20217;-58
2023/06/18 03:46:14;;;;;;;7.30;6.60;;;24.80;41.40;24.80;100507.00;;;;5030140;28;20869;-59
2023/06/18 03:48:41;;;;;;;7.00;6.47;;;24.80;41.40;24.80;100507.00;;;;5030311;28;20171;-60
2023/06/18 03:51:07;;;;;;;7.27;6.57;;;24.80;41.50;24.80;100509.00;;;;5045850;28;20820;-61
2023/06/18 03:53:36;;;;;;;6.57;6.07;;;24.70;41.30;24.70;100514.00;;;;5030249;28;20278;-59
2023/06/18 03:56:06;;;;;;;6.30;5.87;;;24.80;41.60;24.70;100511.00;;;;5030056;28;20198;-61
2023/06/18 03:58:31;;;;;;;7.20;6.60;;;24.70;41.60;24.70;100514.00;;;;5029803;28;20213;-59
2023/06/18 04:00:57;;;;;;;6.50;5.90;;;24.70;41.60;24.70;100513.00;;;;5018685;28;20188;-58
2023/06/18 04:03:23;;;;;;;6.53;6.03;;;24.70;41.70;24.70;100515.00;;;;5015869;28;20660;-57
2023/06/18 04:05:49;;;;;;;7.37;6.50;;;24.70;41.70;24.70;100520.00;;;;5008886;28;20172;-60
2023/06/18 04:08:16;;;;;;;6.73;6.13;;;24.70;42.00;24.60;100522.00;;;;5009404;28;20171;-59
2023/06/18 04:10:43;;;;;;;7.10;6.50;;;24.60;41.90;24.60;100525.00;;;;5009758;28;20548;-60
2023/06/18 04:13:13;;;;;;;7.07;6.50;;;24.60;42.00;24.60;100531.00;;;;5009758;28;20263;-58
2023/06/18 04:15:38;;;;;;;7.17;6.47;;;24.60;42.10;24.50;100527.00;;;;5009178;28;20183;-58
2023/06/18 04:18:04;;;;;;;7.37;6.67;;;24.60;42.10;24.50;100536.00;;;;5008240;28;20223;-58
2023/06/18 04:20:30;;;;;;;6.60;6.10;;;24.60;42.10;24.50;100537.00;;;;5009405;28;20183;-58
2023/06/18 04:22:56;;;;;;;6.87;6.30;;;24.60;42.10;24.50;100528.00;;;;5014424;28;20542;-59
2023/06/18 04:25:21;;;;;;;7.20;6.60;;;24.50;42.30;24.50;100534.00;;;;5010143;28;20178;-59
2023/06/18 04:27:47;;;;;;;7.60;6.90;;;24.50;42.30;24.50;100527.00;;;;5008907;28;20203;-58
2023/06/18 04:30:13;;;;;;;7.00;6.40;;;24.50;42.30;24.40;100474.00;;;;5009572;28;20178;-59
2023/06/18 04:32:39;;;;;;;7.80;7.00;;;24.50;42.30;24.40;100539.00;;;;5010325;28;20176;-59
2023/06/18 04:35:05;;;;;;;7.20;6.60;;;24.40;42.40;24.40;100541.00;;;;5011055;28;20191;-58
2023/06/18 04:37:31;;;;;;;9.53;6.57;;;24.40;42.40;24.40;100543.00;;;;5013137;28;20191;-61
2023/06/18 04:39:57;;;;;;;7.10;6.37;;;24.40;42.70;24.40;100542.00;;;;5033976;28;20183;-59
2023/06/18 04:42:22;;;;;;;7.27;6.57;;;24.40;42.60;24.40;100537.00;;;;5031767;28;20174;-60
2023/06/18 04:44:48;;;;;;;7.10;6.40;;;24.50;42.70;24.40;100539.00;;;;5028679;28;20167;-60
2023/06/18 04:47:15;;;;;;;7.17;6.57;;;24.40;42.80;24.40;100538.00;;;;5028827;28;20183;-59
2023/06/18 04:49:43;;;;;;;7.27;6.67;;;24.40;42.60;24.40;100537.00;;;;5028742;28;20179;-60
2023/06/18 04:52:10;;;;;;;7.03;6.43;;;24.40;43.00;24.40;100534.00;;;;5029682;28;20204;-59
2023/06/18 04:54:36;;;;;;;7.07;6.47;;;24.40;42.90;24.40;100538.00;;;;5028230;28;20183;-59
2023/06/18 04:57:01;;;;;;;6.80;6.20;;;24.40;43.10;24.40;100551.00;;;;5028431;28;20202;-58
2023/06/18 04:59:27;;;;;;;7.30;6.80;;;24.40;43.30;24.40;100546.00;;;;5028464;28;20269;-60
2023/06/18 05:01:55;;;;;;;6.37;5.77;;;24.40;43.30;24.40;100531.00;;;;5028738;28;20171;-60
2023/06/18 05:04:20;;;;;;;7.23;6.60;;;24.40;43.50;24.40;100536.00;;;;5028532;28;20189;-60
2023/06/18 05:06:46;;;;;;;6.87;6.23;;;24.40;43.60;24.30;100530.00;;;;5028103;28;20195;-59
2023/06/18 05:09:12;;;;;;;7.33;6.63;;;24.40;43.80;24.30;100541.00;;;;5028317;28;20263;-59
2023/06/18 05:11:38;;;;;;;6.60;6.10;;;24.30;43.50;24.30;100530.00;;;;5028477;28;20185;-59
2023/06/18 05:14:05;;;;;;;6.60;6.10;;;24.30;43.40;24.30;100544.00;;;;5028602;28;20752;-58
2023/06/18 05:16:32;;;;;;;7.07;6.47;;;24.30;43.50;24.30;100528.00;;;;5027991;28;20264;-59
2023/06/18 05:18:58;;;;;;;6.77;6.20;;;24.30;43.80;24.30;100521.00;;;;5028428;28;20206;-59
2023/06/18 05:21:24;;;;;;;7.17;6.43;;;24.30;44.10;24.30;100526.00;;;;5028945;28;20748;-59
2023/06/18 05:23:50;;;;;;;6.97;6.37;;;24.30;44.20;24.30;100524.00;;;;5027286;28;20231;-60
2023/06/18 05:26:16;;;;;;;7.17;6.47;;;24.30;44.10;24.10;100516.00;;;;5027973;28;20229;-61
2023/06/18 05:28:42;;;;;;;7.57;6.43;;;24.30;44.00;24.30;100517.00;;;;5027025;28;20240;-60
2023/06/18 05:31:07;;;;;;;6.90;6.30;;;24.30;44.10;24.30;100530.00;;;;5028133;28;20175;-60
2023/06/18 05:33:33;;;;;;;6.97;6.37;;;24.30;44.70;24.30;100518.00;;;;5028538;28;20175;-59
2023/06/18 05:35:59;;;;;;;7.13;6.53;;;24.30;44.90;24.30;100532.00;;;;5027671;28;20206;-60
2023/06/18 05:38:25;;;;;;;6.70;6.20;;;24.20;45.10;24.20;100537.00;;;;5010474;28;20284;-60
2023/06/18 05:40:50;;;;;;;6.97;6.47;;;24.30;45.20;24.20;100534.00;;;;5027919;28;20206;-60
2023/06/18 05:43:16;;;;;;;6.90;6.23;;;24.20;45.30;24.20;100537.00;;;;5028416;28;20186;-61
2023/06/18 05:45:42;;;;;;;6.97;6.47;;;24.20;45.40;24.00;100536.00;;;;5027167;28;20175;-59
2023/06/18 05:48:11;;;;;;;6.60;6.10;;;24.20;45.20;24.20;100534.00;;;;5027721;28;20178;-60
2023/06/18 05:50:36;;;;;;;6.40;5.90;;;24.20;44.80;24.20;100541.00;;;;5028216;28;20179;-60
2023/06/18 05:53:02;;;;;;;6.97;6.27;;;24.20;44.80;24.20;100547.00;;;;5027871;28;20719;-60
2023/06/18 05:55:28;;;;;;;6.93;6.33;;;24.20;45.10;24.20;100551.00;;;;5027119;28;20179;-60
2023/06/18 05:57:54;;;;;;;6.83;6.33;;;24.20;45.00;24.20;100546.00;;;;5027598;28;20245;-60
2023/06/18 06:00:20;;;;;;;6.50;6.00;;;24.10;44.70;24.20;100539.00;;;;5026997;28;20210;-59
2023/06/18 06:02:46;;;;;;;7.13;5.53;;;24.10;44.40;24.00;100546.00;;;;5027139;28;20175;-61
2023/06/18 06:05:12;;;;;;;7.73;5.97;;;24.10;44.40;24.20;100544.00;;;;5027798;28;20178;-60
2023/06/18 06:07:37;;;;;;;6.37;5.87;;;24.10;44.30;24.20;100540.00;;;;5029276;28;20183;-59
2023/06/18 06:10:03;;;;;;;6.00;5.53;;;24.10;44.30;24.20;100539.00;;;;5031990;28;20538;-60
2023/06/18 06:12:29;;;;;;;6.20;5.77;;;24.10;44.50;24.20;100527.00;;;;5031881;28;20197;-60
2023/06/18 06:14:55;;;;;;;6.80;6.30;;;24.10;44.50;24.20;100535.00;;;;5030698;28;20656;-60
2023/06/18 06:17:21;;;;;;;6.90;6.30;;;24.10;44.70;24.20;100540.00;;;;5031162;28;20186;-60
2023/06/18 06:19:46;;;;;;;7.37;6.30;;;24.10;45.20;24.20;100544.00;;;;5031137;28;20950;-60
2023/06/18 06:22:12;;;;;;;6.93;6.27;;;24.10;45.30;24.20;100536.00;;;;5031703;28;20171;-61
2023/06/18 06:24:38;;;;;;;6.50;6.00;;;24.10;45.20;24.20;100542.00;;;;5033983;28;20178;-59
2023/06/18 06:27:04;;;;;;;6.33;5.83;;;24.00;44.70;24.20;100528.00;;;;5033465;28;20249;-59
2023/06/18 06:29:30;;;;;;;6.20;5.70;;;24.00;44.60;24.20;100536.00;;;;5031035;28;20723;-59
2023/06/18 06:31:56;;;;;;;8.77;6.37;;;24.00;44.70;24.20;100539.00;;;;5032722;28;20175;-60
2023/06/18 06:34:22;;;;;;;6.13;5.63;;;24.00;45.20;24.20;100528.00;;;;5033406;28;20206;-62
2023/06/18 06:36:48;;;;;;;6.63;6.13;;;24.00;45.10;24.20;100535.00;;;;5032451;28;20194;-58
2023/06/18 06:39:16;;;;;;;6.83;6.17;;;24.00;45.10;24.20;100538.00;;;;5034161;28;20238;-60
2023/06/18 06:41:42;;;;;;;6.63;6.00;;;24.00;45.50;24.20;100545.00;;;;5036303;28;20163;-61
2023/06/18 06:44:07;;;;;;;7.37;6.30;;;24.00;45.90;24.20;100543.00;;;;5030990;28;20190;-60
2023/06/18 06:46:34;;;;;;;6.27;5.77;;;24.00;45.90;24.20;100542.00;;;;5030520;28;20187;-61
2023/06/18 06:49:00;;;;;;;6.53;5.93;;;24.00;45.90;24.20;100544.00;;;;5013374;28;20171;-60
2023/06/18 06:51:26;;;;;;;6.27;5.77;;;24.00;46.00;24.20;100552.00;;;;5031649;28;20181;-61
2023/06/18 06:53:51;;;;;;;6.17;5.57;;;24.00;46.10;24.20;100551.00;;;;5031205;28;20179;-61
2023/06/18 06:56:17;;;;;;;6.67;6.07;;;24.00;46.00;24.20;100545.00;;;;5031901;28;20265;-61
2023/06/18 06:58:43;;;;;;;6.50;6.00;;;24.00;46.10;24.20;100552.00;;;;5032260;28;20679;-61
2023/06/18 07:01:09;;;;;;;6.30;5.80;;;24.00;46.10;24.20;100561.00;;;;5030864;28;20174;-61
2023/06/18 07:03:35;;;;;;;6.23;5.73;;;24.00;46.00;24.10;100551.00;;;;5031364;28;20228;-61
2023/06/18 07:06:03;;;;;;;6.23;5.73;;;24.00;46.10;24.20;100561.00;;;;5029963;28;20244;-60
2023/06/18 07:08:31;;;;;;;6.30;5.80;;;24.00;46.00;24.10;100548.00;;;;5030635;28;20522;-60
2023/06/18 07:10:56;;;;;;;6.30;5.80;;;23.90;46.00;24.20;100552.00;;;;5029718;28;20175;-60
2023/06/18 07:13:22;;;;;;;6.37;5.87;;;23.90;46.70;24.20;100548.00;;;;5030383;28;20183;-61
2023/06/18 07:15:48;;;;;;;6.33;5.80;;;23.90;46.60;24.20;100550.00;;;;5028460;28;20266;-61
2023/06/18 07:18:14;;;;;;;6.73;6.13;;;23.90;46.80;24.30;100550.00;;;;5030873;28;20203;-60
2023/06/18 07:20:40;;;;;;;6.23;5.73;;;23.90;46.80;24.30;100539.00;;;;5029848;28;20171;-61
2023/06/18 07:23:05;;;;;;;6.27;5.77;;;23.90;46.70;24.40;100538.00;;;;5029095;28;20633;-62
2023/06/18 07:25:31;;;;;;;6.00;5.50;;;23.90;46.70;24.40;100545.00;;;;5030406;28;20175;-61
2023/06/18 07:27:57;;;;;;;6.20;5.67;;;23.90;46.60;24.40;100540.00;;;;5030955;28;20217;-60
2023/06/18 07:30:23;;;;;;;5.70;5.27;;;23.90;46.80;24.40;100539.00;;;;5031370;28;20174;-61
2023/06/18 07:32:48;;;;;;;6.47;5.97;;;24.00;46.70;24.50;100535.00;;;;5031109;28;20661;-59
2023/06/18 07:35:14;;;;;;;6.20;5.70;;;24.00;46.40;24.50;100539.00;;;;5030865;28;20187;-58
2023/06/18 07:37:40;;;;;;;6.17;5.67;;;24.10;46.20;24.50;100538.00;;;;5031052;28;20622;-59
2023/06/18 07:40:07;;;;;;;5.93;5.53;;;24.10;45.60;24.50;100539.00;;;;5030920;28;20198;-60
2023/06/18 07:42:32;;;;;;;6.17;5.67;;;24.10;45.30;24.50;100528.00;;;;5031063;28;20260;-58
2023/06/18 07:44:58;;;;;;;6.73;5.83;;;24.10;45.20;24.60;100535.00;;;;5029814;28;20168;-58
2023/06/18 07:47:24;;;;;;;5.87;5.47;;;24.10;45.10;24.60;100532.00;;;;5031173;28;20677;-59
2023/06/18 07:49:50;;;;;;;5.93;5.40;;;24.10;45.00;24.60;100538.00;;;;5031416;28;20182;-60
2023/06/18 07:52:16;;;;;;;6.30;5.80;;;24.10;44.90;24.40;100538.00;;;;5031214;28;20171;-60
2023/06/18 07:54:42;;;;;;;6.43;5.93;;;24.20;44.90;24.60;100538.00;;;;5030557;28;20657;-60
2023/06/18 07:57:08;;;;;;;5.87;5.47;;;24.20;44.90;24.60;100540.00;;;;5030749;28;20194;-60
2023/06/18 07:59:33;;;;;;;6.17;5.67;;;24.20;45.00;24.70;100534.00;;;;5011194;28;20203;-58
2023/06/18 08:01:59;;;;;;;6.17;5.67;;;24.20;44.80;24.70;100534.00;;;;5029390;28;20167;-59
2023/06/18 08:04:25;;;;;;;6.53;5.87;;;24.20;44.80;24.70;100542.00;;;;5030334;28;20167;-60
2023/06/18 08:06:51;;;;;;;5.97;5.53;;;24.20;44.70;24.70;100545.00;;;;5016311;28;20202;-59
2023/06/18 08:09:17;;;;;;;6.53;5.90;;;24.20;44.80;24.70;100525.00;;;;5026750;28;20182;-60
2023/06/18 08:11:43;;;;;;;6.23;5.80;;;24.30;45.30;24.70;100524.00;;;;5027511;28;20175;-59
2023/06/18 08:14:10;;;;;;;6.73;6.10;;;24.30;44.80;24.80;100535.00;;;;4994719;28;20175;-59
2023/06/18 08:16:37;;;;;;;6.30;5.70;;;24.30;45.10;24.80;100529.00;;;;5027814;28;20195;-60
2023/06/18 08:19:03;;;;;;;6.70;6.10;;;24.30;44.80;24.80;100528.00;;;;5027170;28;20187;-60
2023/06/18 08:21:29;;;;;;;6.40;5.90;;;24.40;45.00;24.80;100526.00;;;;5028128;28;20526;-60
2023/06/18 08:23:55;;;;;;;6.03;5.53;;;24.40;44.90;24.90;100510.00;;;;4995498;28;20661;-59
2023/06/18 08:26:22;;;;;;;6.47;5.80;;;24.40;44.60;24.90;100525.00;;;;5013647;28;20217;-61
2023/06/18 08:28:49;;;;;;;6.60;6.00;;;24.40;44.60;24.90;100523.00;;;;5024366;28;20231;-58
2023/06/18 08:31:15;;;;;;;6.30;5.77;;;24.40;44.60;24.90;100519.00;;;;5035204;28;20531;-59
2023/06/18 08:33:41;;;;;;;6.30;5.80;;;24.40;44.60;24.90;100516.00;;;;4995454;28;20171;-59
2023/06/18 08:36:07;;;;;;;6.27;5.77;;;24.50;44.50;24.90;100514.00;;;;5027276;28;20206;-59
2023/06/18 08:38:32;;;;;;;6.67;6.17;;;24.50;44.70;25.00;100500.00;;;;5028235;28;20238;-59
2023/06/18 08:41:02;;;;;;;6.27;5.77;;;24.50;45.00;25.00;100514.00;;;;4977948;28;20182;-60
2023/06/18 08:43:37;;;;;;;6.40;5.80;;;24.50;45.00;25.00;100493.00;;;;5012528;28;20159;-60
2023/06/18 08:46:11;;;;;;;6.10;5.63;;;24.50;45.00;25.10;100515.00;;;;5013699;28;20217;-59
2023/06/18 08:48:43;;;;;;;6.30;5.80;;;24.60;45.10;25.10;100514.00;;;;5028817;28;20221;-59
2023/06/18 08:51:09;;;;;;;6.13;5.73;;;24.60;45.10;25.10;100514.00;;;;5029073;28;20174;-60
2023/06/18 08:53:49;;;;;;;6.37;5.83;;;24.60;44.90;25.10;100505.00;;;;5028595;28;20657;-60
2023/06/18 08:56:15;;;;;;;6.23;5.63;;;24.60;44.50;25.20;100509.00;;;;5027606;28;20199;-59
2023/06/18 08:58:48;;;;;;;6.40;5.90;;;24.60;44.30;25.20;100511.00;;;;5026910;28;20811;-59
2023/06/18 09:01:14;;;;;;;6.27;5.77;;;24.60;43.90;25.20;100516.00;;;;5026571;28;20178;-59
2023/06/18 09:03:40;;;;;;;6.27;5.70;;;24.70;43.50;25.20;100495.00;;;;5010455;28;20198;-61
2023/06/18 09:06:05;;;;;;;6.20;5.70;;;24.70;43.20;25.20;100488.00;;;;5009442;28;20665;-60
2023/06/18 09:08:31;;;;;;;6.23;5.63;;;24.70;43.10;25.30;100496.00;;;;5010186;28;20219;-62
2023/06/18 09:10:57;;;;;;;6.20;5.60;;;24.70;43.40;25.30;100512.00;;;;5010011;28;20191;-60
2023/06/18 09:13:23;;;;;;;6.33;5.83;;;24.70;43.50;25.30;100510.00;;;;5026182;28;20182;-60
2023/06/18 09:15:48;;;;;;;6.23;5.73;;;24.70;43.40;25.40;100504.00;;;;5027127;28;20178;-61
2023/06/18 09:18:15;;;;;;;6.63;6.07;;;24.80;43.50;25.40;100503.00;;;;5027651;28;20714;-61
2023/06/18 09:20:40;;;;;;;6.30;5.80;;;24.80;43.20;25.40;100503.00;;;;5028086;28;20167;-59
2023/06/18 09:23:08;;;;;;;6.30;5.70;;;24.80;43.20;25.40;100500.00;;;;5027168;28;20171;-61
2023/06/18 09:25:34;;;;;;;6.03;5.55;;;24.90;43.30;25.50;100506.00;;;;5027110;28;20905;-62
2023/06/18 09:28:01;;;;;;;6.57;6.07;;;24.80;43.20;25.50;100500.00;;;;5028481;28;20179;-60
2023/06/18 09:30:27;;;;;;;6.90;6.27;;;24.90;43.00;25.50;100498.00;;;;5029737;28;20191;-59
2023/06/18 09:32:57;;;;;;;6.73;5.77;;;24.90;42.70;25.50;100506.00;;;;5026702;28;20785;-59
2023/06/18 09:35:23;;;;;;;6.10;5.60;;;24.90;42.30;25.60;100507.00;;;;5026516;28;20182;-59
2023/06/18 09:37:48;;;;;;;6.13;5.63;;;25.00;42.60;25.60;100495.00;;;;5027971;28;20664;-59
2023/06/18 09:40:19;;;;;;;5.70;5.30;;;25.00;41.70;25.60;100504.00;;;;5026062;28;20174;-60
2023/06/18 09:42:45;;;;;;;5.57;5.13;;;25.00;39.50;25.60;100507.00;;;;5028186;28;20163;-60
2023/06/18 09:45:12;;;;;;;5.70;5.20;;;25.00;39.10;25.70;100475.00;;;;5029823;28;20542;-59
2023/06/18 09:47:43;;;;;;;6.05;5.47;;;25.00;39.40;25.70;100497.00;;;;5012799;28;20188;-60
2023/06/18 09:50:12;;;;;;;6.10;5.60;;;25.00;38.90;25.70;100489.00;;;;5009041;28;20180;-58
2023/06/18 09:52:46;;;;;;;5.88;5.38;;;25.10;38.50;25.70;100492.00;;;;5011500;28;20532;-58
2023/06/18 09:55:38;;;;;;;5.80;5.18;;;25.00;37.80;25.80;100492.00;;;;5011426;28;20164;-49
2023/06/18 09:58:04;;;;;;;6.67;4.97;;;25.10;37.40;25.80;100500.00;;;;5023855;28;20242;-51
2023/06/18 10:00:30;;;;;;;5.63;5.13;;;25.10;38.10;25.80;100491.00;;;;5031497;28;20897;-52
2023/06/18 10:03:06;;;;;;;5.30;4.80;;;25.10;38.70;25.80;100501.00;;;;5032065;28;20171;-51
2023/06/18 10:05:34;;;;;;;8.23;5.45;;;25.10;39.60;25.80;100500.00;;;;5031669;28;20163;-50
2023/06/18 10:07:59;;;;;;;5.95;4.75;;;25.10;40.40;25.80;100492.00;;;;5031973;28;20529;-50
2023/06/18 10:10:25;;;;;;;7.20;5.32;;;25.10;40.90;25.80;100491.00;;;;4994914;28;20175;-50
2023/06/18 10:12:51;;;;;;;6.97;4.80;;;25.10;41.30;25.90;100470.00;;;;4996632;28;20179;-51
2023/06/18 10:15:17;;;;;;;5.80;5.05;;;25.10;41.90;25.90;100476.00;;;;5037797;28;20171;-50
2023/06/18 10:17:47;;;;;;;7.80;4.68;;;25.10;42.40;25.90;100483.00;;;;5019628;28;20277;-50
2023/06/18 10:20:14;;;;;;;6.47;4.82;;;25.20;42.90;25.90;100478.00;;;;5027447;28;20172;-51
2023/06/18 10:22:46;;;;;;;7.05;4.90;;;25.20;43.30;25.90;100483.00;;;;5023856;28;20233;-51
2023/06/18 10:25:12;;;;;;;5.47;4.83;;;25.20;43.80;26.00;100481.00;;;;5030187;28;20170;-50
2023/06/18 10:27:38;;;;;;;8.57;5.05;;;25.20;44.10;26.00;100463.00;;;;5022906;28;20199;-50
2023/06/18 10:30:04;;;;;;;6.80;4.80;;;25.20;44.50;26.00;100475.00;;;;5030388;28;20171;-49
2023/06/18 10:32:33;;;;;;;7.22;4.70;;;25.30;44.60;26.10;100454.00;;;;5025162;28;20649;-49
2023/06/18 10:35:00;;;;;;;5.80;5.07;;;25.30;44.70;26.10;100467.00;;;;5029905;28;20191;-50
2023/06/18 10:37:27;;;;;;;5.72;4.88;;;25.30;44.90;26.10;100459.00;;;;5045925;28;20175;-49
2023/06/18 10:39:53;;;;;;;7.38;5.00;;;25.30;44.90;26.20;100464.00;;;;5035888;28;20235;-50
2023/06/18 10:42:19;;;;;;;5.82;4.90;;;25.30;45.10;26.20;100467.00;;;;5014376;28;20221;-49
2023/06/18 10:44:55;;;;;;;5.13;4.63;;;25.40;45.50;26.20;100459.00;;;;5028182;28;20176;-52
2023/06/18 10:47:31;;;;;;;6.82;4.80;;;25.40;45.60;26.20;100456.00;;;;5019545;28;20198;-51